createdAt,value
2023-03-18T00:01:36.172Z,61685.72
2023-03-18T00:04:04.832Z,61682.31
2023-03-18T00:06:33.205Z,61681.22
2023-03-18T00:09:02.461Z,61677.34
2023-03-18T00:11:32.426Z,61680.56
2023-03-18T00:14:00.893Z,61673.25
2023-03-18T00:16:29.403Z,61673.97
2023-03-18T00:18:57.742Z,61670.56
2023-03-18T00:21:27.122Z,61671.25
2023-03-18T00:23:56.664Z,61679.06
2023-03-18T00:26:25.717Z,61679.06
2023-03-18T00:28:57.857Z,61670.69
2023-03-18T00:31:27.721Z,61673.69
2023-03-18T00:33:56.610Z,61668.41
2023-03-18T00:36:26.395Z,61673.25
2023-03-18T00:38:58.020Z,61670.88
2023-03-18T00:41:28.229Z,61675.31
2023-03-18T00:43:59.110Z,61681.09
2023-03-18T00:46:29.953Z,61664.22
2023-03-18T00:49:02.132Z,61672.06
2023-03-18T00:51:33.303Z,61671.13
2023-03-18T00:54:04.628Z,61673.81
2023-03-18T00:56:34.069Z,61669.63
2023-03-18T00:59:04.376Z,61674.78
2023-03-18T01:01:32.832Z,61669.63
2023-03-18T01:04:02.767Z,61673.16
2023-03-18T01:06:34.025Z,61654.97
2023-03-18T01:09:05.104Z,61651.09
2023-03-18T01:11:34.483Z,61654.31
2023-03-18T01:14:04.742Z,61658.19
2023-03-18T01:16:33.196Z,61658.72
2023-03-18T01:19:01.616Z,61664.00
2023-03-18T01:21:30.016Z,61657.13
2023-03-18T01:24:01.798Z,61662.28
2023-03-18T01:26:31.699Z,61660.13
2023-03-18T01:29:03.783Z,61650.69
2023-03-18T01:31:34.661Z,61646.25
2023-03-18T01:34:08.088Z,61647.44
2023-03-18T01:36:46.521Z,61643.16
2023-03-18T01:39:15.598Z,61646.81
2023-03-18T01:41:44.684Z,61646.69
2023-03-18T01:44:21.915Z,61641.44
2023-03-18T01:46:53.223Z,61640.25
2023-03-18T01:49:27.155Z,61633.47
2023-03-18T01:51:58.969Z,61633.88
2023-03-18T01:54:30.348Z,61637.97
2023-03-18T01:56:59.108Z,61622.19
2023-03-18T01:59:31.716Z,61613.59
2023-03-18T02:02:06.607Z,61614.75
2023-03-18T02:04:41.220Z,61605.97
2023-03-18T02:07:17.054Z,61601.66
2023-03-18T02:09:46.335Z,61598.88
2023-03-18T02:12:18.168Z,61596.16
2023-03-18T02:14:48.249Z,61588.66
2023-03-18T02:17:20.442Z,61575.34
2023-03-18T02:20:01.320Z,61591.34
2023-03-18T02:22:34.287Z,61586.19
2023-03-18T02:25:23.190Z,61573.72
2023-03-18T02:27:59.234Z,61576.81
2023-03-18T02:30:36.727Z,61580.81
2023-03-18T02:33:08.056Z,61585.53
2023-03-18T02:35:38.848Z,61577.34
2023-03-18T02:38:07.319Z,61562.56
2023-03-18T02:40:39.729Z,61564.28
2023-03-18T02:43:23.445Z,61553.31
2023-03-18T02:46:13.065Z,61538.91
2023-03-18T02:48:46.314Z,61540.84
2023-03-18T02:51:17.577Z,61545.81
2023-03-18T02:53:46.939Z,61544.41
2023-03-18T02:56:16.309Z,61553.31
2023-03-18T02:58:46.692Z,61560.19
2023-03-18T03:01:17.568Z,61555.47
2023-03-18T03:03:46.095Z,61552.25
2023-03-18T03:06:15.497Z,61549.44
2023-03-18T03:08:44.766Z,61544.72
2023-03-18T03:11:13.231Z,61535.69
2023-03-18T03:13:45.336Z,61539.56
2023-03-18T03:16:17.867Z,61557.19
2023-03-18T03:18:46.325Z,61555.88
2023-03-18T03:21:16.239Z,61539.34
2023-03-18T03:23:45.419Z,61540.84
2023-03-18T03:26:16.728Z,61533.34
2023-03-18T03:28:45.166Z,61539.78
2023-03-18T03:31:16.966Z,61529.91
2023-03-18T03:33:46.096Z,61534.41
2023-03-18T03:36:18.066Z,61532.91
2023-03-18T03:38:47.061Z,61527.53
2023-03-18T03:41:15.992Z,61531.31
2023-03-18T03:43:45.782Z,61530.22
2023-03-18T03:46:14.475Z,61529.91
2023-03-18T03:48:44.940Z,61529.25
2023-03-18T03:51:15.875Z,61527.09
2023-03-18T03:53:46.281Z,61500.25
2023-03-18T03:56:15.715Z,61518.53
2023-03-18T03:58:44.831Z,61523.25
2023-03-18T04:01:13.667Z,61518.84
2023-03-18T04:03:44.471Z,61525.28
2023-03-18T04:06:13.351Z,61529.88
2023-03-18T04:08:48.466Z,61512.06
2023-03-18T04:11:17.297Z,61517.22
2023-03-18T04:13:45.790Z,61513.59
2023-03-18T04:16:14.533Z,61506.16
2023-03-18T04:18:44.617Z,61503.91
2023-03-18T04:21:13.288Z,61494.88
2023-03-18T04:23:46.603Z,61498.94
2023-03-18T04:26:15.014Z,61492.09
2023-03-18T04:28:43.660Z,61484.69
2023-03-18T04:31:15.680Z,61484.69
2023-03-18T04:33:45.861Z,61493.16
2023-03-18T04:36:14.229Z,61489.53
2023-03-18T04:38:43.543Z,61491.00
2023-03-18T04:41:12.226Z,61489.94
2023-03-18T04:43:40.936Z,61478.25
2023-03-18T04:46:10.262Z,61474.78
2023-03-18T04:48:39.008Z,61474.38
2023-03-18T04:51:12.620Z,61473.81
2023-03-18T04:53:42.101Z,61460.53
2023-03-18T04:56:11.805Z,61465.69
2023-03-18T04:58:48.660Z,61467.41
2023-03-18T05:01:21.615Z,61460.53
2023-03-18T05:03:50.351Z,61460.00
2023-03-18T05:06:28.123Z,61455.16
2023-03-18T05:09:00.084Z,61455.59
2023-03-18T05:11:34.286Z,61452.38
2023-03-18T05:14:11.962Z,61452.91
2023-03-18T05:16:45.510Z,61452.78
2023-03-18T05:19:14.586Z,61451.19
2023-03-18T05:21:51.582Z,61458.81
2023-03-18T05:24:20.805Z,61465.16
2023-03-18T05:26:49.606Z,61465.91
2023-03-18T05:29:22.150Z,61472.66
2023-03-18T05:32:12.741Z,61470.59
2023-03-18T05:34:42.468Z,61469.66
2023-03-18T05:37:15.996Z,61478.97
2023-03-18T05:39:59.368Z,61475.56
2023-03-18T05:42:29.805Z,61479.19
2023-03-18T05:44:58.735Z,61483.91
2023-03-18T05:47:27.880Z,61475.03
2023-03-18T05:50:14.384Z,61478.53
2023-03-18T05:52:44.558Z,61477.72
2023-03-18T05:55:20.346Z,61472.34
2023-03-18T05:57:49.244Z,61474.38
2023-03-18T06:00:20.235Z,61481.22
2023-03-18T06:02:52.415Z,61482.41
2023-03-18T06:05:21.129Z,61478.78
2023-03-18T06:07:51.482Z,61487.78
2023-03-18T06:10:20.898Z,61488.03
2023-03-18T06:12:50.666Z,61489.53
2023-03-18T06:15:21.448Z,61493.41
2023-03-18T06:17:50.554Z,61501.22
2023-03-18T06:20:19.882Z,61495.97
2023-03-18T06:22:50.628Z,61488.03
2023-03-18T06:25:22.205Z,61501.09
2023-03-18T06:27:52.273Z,61495.97
2023-03-18T06:30:24.110Z,61503.34
2023-03-18T06:32:55.094Z,61495.44
2023-03-18T06:35:28.239Z,61499.59
2023-03-18T06:37:58.179Z,61498.09
2023-03-18T06:40:26.725Z,61493.81
2023-03-18T06:42:56.523Z,61494.75
2023-03-18T06:45:37.564Z,61491.53
2023-03-18T06:48:09.654Z,61496.78
2023-03-18T06:50:43.187Z,61492.09
2023-03-18T06:53:23.404Z,61493.81
2023-03-18T06:55:53.964Z,61502.41
2023-03-18T06:58:25.995Z,61510.91
2023-03-18T07:01:04.127Z,61518.84
2023-03-18T07:03:38.796Z,61518.94
2023-03-18T07:06:09.796Z,61516.50
2023-03-18T07:08:41.254Z,61515.72
2023-03-18T07:11:09.987Z,61521.09
2023-03-18T07:13:41.705Z,61513.16
2023-03-18T07:16:18.243Z,61520.44
2023-03-18T07:18:46.883Z,61537.09
2023-03-18T07:21:16.838Z,61552.66
2023-03-18T07:23:47.275Z,61552.25
2023-03-18T07:26:15.715Z,61555.47
2023-03-18T07:28:44.178Z,61559.34
2023-03-18T07:31:13.123Z,61563.41
2023-03-18T07:33:41.766Z,61559.34
2023-03-18T07:36:11.045Z,61596.16
2023-03-18T07:38:40.097Z,61622.06
2023-03-18T07:41:10.107Z,61651.22
2023-03-18T07:43:38.645Z,61657.53
2023-03-18T07:46:07.074Z,61668.31
2023-03-18T07:48:35.557Z,61686.72
2023-03-18T07:51:04.051Z,61697.25
2023-03-18T07:53:33.793Z,61724.47
2023-03-18T07:56:02.166Z,61731.13
2023-03-18T07:58:32.763Z,61768.78
2023-03-18T08:01:01.241Z,61741.69
2023-03-18T08:03:29.893Z,61747.47
2023-03-18T08:05:58.413Z,61765.56
2023-03-18T08:08:26.978Z,61766.22
2023-03-18T08:10:58.677Z,61849.78
2023-03-18T08:13:27.451Z,61981.03
2023-03-18T08:15:57.412Z,62078.81
2023-03-18T08:18:26.556Z,62168.84
2023-03-18T08:20:55.440Z,62266.63
2023-03-18T08:23:24.079Z,62246.22
2023-03-18T08:25:53.018Z,62311.50
2023-03-18T08:28:21.396Z,62379.66
2023-03-18T08:30:49.819Z,62414.31
2023-03-18T08:33:19.652Z,62448.31
2023-03-18T08:35:49.569Z,62389.06
2023-03-18T08:38:18.185Z,62424.06
2023-03-18T08:40:47.500Z,62450.03
2023-03-18T08:43:16.066Z,62470.84
2023-03-18T08:45:44.864Z,62445.69
2023-03-18T08:48:13.318Z,62506.28
2023-03-18T08:50:43.320Z,62528.03
2023-03-18T08:53:13.108Z,62557.84
2023-03-18T08:55:44.665Z,62504.84
2023-03-18T08:58:13.167Z,62575.72
2023-03-18T09:00:42.961Z,62506.38
2023-03-18T09:03:11.691Z,62574.63
2023-03-18T09:05:40.391Z,62599.59
2023-03-18T09:08:10.361Z,62582.66
2023-03-18T09:10:38.882Z,62551.22
2023-03-18T09:13:08.285Z,62557.94
2023-03-18T09:15:36.838Z,62538.84
2023-03-18T09:18:11.347Z,62547.09
2023-03-18T09:20:41.005Z,62623.22
2023-03-18T09:23:11.515Z,62644.00
2023-03-18T09:25:40.351Z,62613.13
2023-03-18T09:28:08.795Z,62623.44
2023-03-18T09:30:38.122Z,62687.63
2023-03-18T09:33:07.729Z,62644.47
2023-03-18T09:35:37.194Z,62651.63
2023-03-18T09:38:06.728Z,62631.75
2023-03-18T09:40:39.463Z,62644.22
2023-03-18T09:43:24.834Z,62658.66
2023-03-18T09:46:03.176Z,62623.44
2023-03-18T09:48:58.242Z,62641.84
2023-03-18T09:51:39.820Z,62596.88
2023-03-18T09:54:14.101Z,62559.97
2023-03-18T09:56:46.768Z,62599.03
2023-03-18T09:59:22.689Z,62618.97
2023-03-18T10:01:55.318Z,62627.75
2023-03-18T10:04:27.957Z,62614.66
2023-03-18T10:07:01.412Z,62645.22
2023-03-18T10:09:35.374Z,62628.84
2023-03-18T10:12:15.142Z,62643.47
2023-03-18T10:14:50.028Z,62645.09
2023-03-18T10:17:22.800Z,62636.88
2023-03-18T10:19:55.657Z,62641.41
2023-03-18T10:22:57.672Z,62672.84
2023-03-18T10:25:35.067Z,62658.13
2023-03-18T10:28:34.785Z,62686.88
2023-03-18T10:31:15.436Z,62719.97
2023-03-18T10:33:49.833Z,62677.09
2023-03-18T10:36:23.948Z,62668.34
2023-03-18T10:38:56.245Z,62645.56
2023-03-18T10:41:30.359Z,62635.34
2023-03-18T10:44:04.932Z,62580.13
2023-03-18T10:46:35.724Z,62573.44
2023-03-18T10:49:11.432Z,62561.41
2023-03-18T10:51:46.502Z,62597.09
2023-03-18T10:54:24.233Z,62608.78
2023-03-18T10:56:53.769Z,62585.03
2023-03-18T10:59:25.836Z,62580.69
2023-03-18T11:02:01.008Z,62591.97
2023-03-18T11:04:32.039Z,62569.19
2023-03-18T11:07:04.344Z,62606.09
2023-03-18T11:09:36.392Z,62614.75
2023-03-18T11:12:07.170Z,62585.91
2023-03-18T11:14:38.433Z,62583.81
2023-03-18T11:17:20.824Z,62570.94
2023-03-18T11:20:00.081Z,62603.91
2023-03-18T11:22:30.208Z,62619.41
2023-03-18T11:25:15.021Z,62648.91
2023-03-18T11:27:47.189Z,62694.38
2023-03-18T11:30:34.026Z,62680.38
2023-03-18T11:33:07.342Z,62649.44
2023-03-18T11:35:41.984Z,62607.69
2023-03-18T11:38:20.769Z,62610.84
2023-03-18T11:40:49.176Z,62621.69
2023-03-18T11:43:21.616Z,62633.19
2023-03-18T11:45:58.356Z,62631.66
2023-03-18T11:48:36.574Z,62644.13
2023-03-18T11:51:36.728Z,62618.44
2023-03-18T11:54:24.967Z,62617.81
2023-03-18T11:56:58.787Z,62593.63
2023-03-18T11:59:45.481Z,62526.94
2023-03-18T12:02:47.738Z,62506.38
2023-03-18T12:05:40.580Z,62476.13
2023-03-18T12:08:20.714Z,62458.72
2023-03-18T12:10:56.381Z,62445.69
2023-03-18T12:13:41.027Z,62443.56
2023-03-18T12:16:20.281Z,62432.28
2023-03-18T12:19:12.649Z,62422.41
2023-03-18T12:22:08.283Z,62428.38
2023-03-18T12:25:03.491Z,62407.38
2023-03-18T12:27:43.994Z,62429.81
2023-03-18T12:30:45.093Z,62443.63
2023-03-18T12:33:29.340Z,62440.28
2023-03-18T12:36:12.483Z,62446.78
2023-03-18T12:39:09.265Z,62492.72
2023-03-18T12:41:52.613Z,62486.75
2023-03-18T12:44:38.901Z,62505.28
2023-03-18T12:47:13.008Z,62489.03
2023-03-18T12:49:46.274Z,62502.91
2023-03-18T12:52:30.214Z,62503.03
2023-03-18T12:55:06.059Z,62515.66
2023-03-18T12:57:43.530Z,62506.91
2023-03-18T13:00:24.694Z,62502.03
2023-03-18T13:03:23.490Z,62498.03
2023-03-18T13:05:56.983Z,62479.91
2023-03-18T13:08:54.261Z,62455.34
2023-03-18T13:11:55.719Z,62460.66
2023-03-18T13:14:32.771Z,62466.72
2023-03-18T13:17:02.234Z,62453.72
2023-03-18T13:19:31.364Z,62458.06
2023-03-18T13:22:16.827Z,62433.78
2023-03-18T13:25:17.901Z,62444.28
2023-03-18T13:28:45.748Z,62448.94
2023-03-18T13:31:28.880Z,62423.53
2023-03-18T13:34:36.067Z,62427.31
2023-03-18T13:37:31.800Z,62412.16
2023-03-18T13:40:38.652Z,62386.72
2023-03-18T13:43:13.511Z,62399.16
2023-03-18T13:45:45.931Z,62399.16
2023-03-18T13:48:18.308Z,62395.91
2023-03-18T13:50:48.883Z,62419.09
2023-03-18T13:53:26.682Z,62427.31
2023-03-18T13:56:04.997Z,62440.94
2023-03-18T13:58:37.474Z,62419.53
2023-03-18T14:01:28.695Z,62419.63
2023-03-18T14:04:18.722Z,62424.06
2023-03-18T14:06:54.373Z,62438.13
2023-03-18T14:09:48.954Z,62444.63
2023-03-18T14:12:42.206Z,62445.69
2023-03-18T14:15:39.616Z,62436.06
2023-03-18T14:18:27.623Z,62405.66
2023-03-18T14:21:02.674Z,62396.97
2023-03-18T14:23:39.355Z,62407.72
2023-03-18T14:26:19.565Z,62396.00
2023-03-18T14:28:54.919Z,62393.31
2023-03-18T14:31:57.805Z,62395.91
2023-03-18T14:34:33.138Z,62385.50
2023-03-18T14:37:27.891Z,62394.81
2023-03-18T14:40:02.200Z,62400.22
2023-03-18T14:42:46.045Z,62404.13
2023-03-18T14:45:22.998Z,62428.94
2023-03-18T14:47:53.686Z,62437.94
2023-03-18T14:50:34.790Z,62453.28
2023-03-18T14:53:12.348Z,62430.34
2023-03-18T14:55:41.606Z,62427.56
2023-03-18T14:58:17.921Z,62401.31
2023-03-18T15:00:51.667Z,62418.63
2023-03-18T15:03:24.946Z,62407.63
2023-03-18T15:05:58.093Z,62388.97
2023-03-18T15:08:44.638Z,62388.31
2023-03-18T15:11:16.605Z,62393.19
2023-03-18T15:13:46.528Z,62402.19
2023-03-18T15:16:21.892Z,62396.44
2023-03-18T15:18:54.840Z,62407.28
2023-03-18T15:21:28.732Z,62396.53
2023-03-18T15:24:01.970Z,62373.91
2023-03-18T15:26:32.695Z,62366.16
2023-03-18T15:29:09.974Z,62360.75
2023-03-18T15:31:46.197Z,62345.69
2023-03-18T15:34:20.992Z,62347.22
2023-03-18T15:36:55.515Z,62323.41
2023-03-18T15:39:34.028Z,62320.38
2023-03-18T15:42:06.789Z,62325.56
2023-03-18T15:44:39.308Z,62316.38
2023-03-18T15:47:16.700Z,62315.22
2023-03-18T15:49:54.551Z,62313.69
2023-03-18T15:52:27.012Z,62301.78
2023-03-18T15:54:55.707Z,62286.09
2023-03-18T15:57:31.008Z,62286.63
2023-03-18T16:00:00.257Z,62290.50
2023-03-18T16:02:31.661Z,62290.75
2023-03-18T16:05:09.395Z,62284.47
2023-03-18T16:07:38.715Z,62270.97
2023-03-18T16:10:09.436Z,62273.03
2023-03-18T16:12:39.615Z,62270.44
2023-03-18T16:15:16.328Z,62272.91
2023-03-18T16:17:48.992Z,62274.75
2023-03-18T16:20:21.573Z,62267.63
2023-03-18T16:22:50.272Z,62261.78
2023-03-18T16:25:19.124Z,62259.19
2023-03-18T16:27:50.697Z,62258.53
2023-03-18T16:30:22.670Z,62268.69
2023-03-18T16:32:53.395Z,62266.09
2023-03-18T16:35:24.601Z,62263.94
2023-03-18T16:37:54.500Z,62268.16
2023-03-18T16:40:25.437Z,62253.56
2023-03-18T16:42:54.345Z,62258.53
2023-03-18T16:45:28.683Z,62239.28
2023-03-18T16:48:02.285Z,62249.88
2023-03-18T16:50:34.943Z,62251.06
2023-03-18T16:53:17.583Z,62249.00
2023-03-18T16:55:47.534Z,62265.44
2023-03-18T16:58:19.704Z,62255.28
2023-03-18T17:00:49.783Z,62265.00
2023-03-18T17:03:21.168Z,62271.50
2023-03-18T17:05:52.085Z,62268.47
2023-03-18T17:08:22.120Z,62257.44
2023-03-18T17:10:53.952Z,62253.78
2023-03-18T17:13:25.978Z,62243.84
2023-03-18T17:15:54.882Z,62230.41
2023-03-18T17:18:25.773Z,62223.94
2023-03-18T17:20:54.183Z,62209.34
2023-03-18T17:23:25.386Z,62204.41
2023-03-18T17:25:56.871Z,62196.94
2023-03-18T17:28:33.112Z,62195.84
2023-03-18T17:31:02.177Z,62185.03
2023-03-18T17:33:33.944Z,62181.78
2023-03-18T17:36:02.772Z,62176.38
2023-03-18T17:38:32.262Z,62173.69
2023-03-18T17:41:04.001Z,62165.06
2023-03-18T17:43:35.182Z,62159.66
2023-03-18T17:46:06.194Z,62144.09
2023-03-18T17:48:37.856Z,62143.91
2023-03-18T17:51:09.206Z,62132.56
2023-03-18T17:53:40.337Z,62122.41
2023-03-18T17:56:12.431Z,62117.34
2023-03-18T17:58:46.111Z,62104.16
2023-03-18T18:01:19.955Z,62097.03
2023-03-18T18:03:50.030Z,62090.22
2023-03-18T18:06:21.007Z,62089.38
2023-03-18T18:08:50.370Z,62082.03
2023-03-18T18:11:22.910Z,62081.81
2023-03-18T18:13:53.219Z,62076.41
2023-03-18T18:16:24.222Z,62071.66
2023-03-18T18:18:54.147Z,62064.75
2023-03-18T18:21:25.049Z,62056.22
2023-03-18T18:23:53.573Z,62056.53
2023-03-18T18:26:22.974Z,62043.81
2023-03-18T18:28:53.448Z,62041.44
2023-03-18T18:31:23.980Z,62041.88
2023-03-18T18:33:55.929Z,62025.91
2023-03-18T18:36:28.120Z,62027.41
2023-03-18T18:38:56.781Z,62024.16
2023-03-18T18:41:25.938Z,62020.50
2023-03-18T18:43:55.649Z,62025.25
2023-03-18T18:46:25.115Z,62024.16
2023-03-18T18:48:55.309Z,62020.94
2023-03-18T18:51:26.058Z,62023.00
2023-03-18T18:53:55.763Z,62015.53
2023-03-18T18:56:35.353Z,62008.66
2023-03-18T18:59:22.259Z,62013.19
2023-03-18T19:01:51.471Z,62002.59
2023-03-18T19:04:22.822Z,62003.78
2023-03-18T19:06:52.445Z,62005.63
2023-03-18T19:09:24.425Z,61991.84
2023-03-18T19:11:53.837Z,61988.03
2023-03-18T19:14:25.540Z,61991.63
2023-03-18T19:16:56.465Z,61978.56
2023-03-18T19:19:30.534Z,61975.66
2023-03-18T19:21:59.295Z,61972.94
2023-03-18T19:24:30.996Z,61967.13
2023-03-18T19:27:02.592Z,61968.66
2023-03-18T19:29:32.688Z,61969.59
2023-03-18T19:32:01.411Z,61965.41
2023-03-18T19:34:32.364Z,61957.97
2023-03-18T19:37:02.889Z,61952.56
2023-03-18T19:39:31.816Z,61946.09
2023-03-18T19:42:00.369Z,61947.59
2023-03-18T19:44:28.931Z,61942.84
2023-03-18T19:47:01.126Z,61942.75
2023-03-18T19:49:33.712Z,61937.88
2023-03-18T19:52:03.145Z,61924.13
2023-03-18T19:54:34.225Z,61927.13
2023-03-18T19:57:06.907Z,61923.91
2023-03-18T19:59:39.651Z,61918.06
2023-03-18T20:02:21.964Z,61921.09
2023-03-18T20:04:53.048Z,61910.63
2023-03-18T20:07:24.288Z,61917.44
2023-03-18T20:09:53.553Z,61915.81
2023-03-18T20:12:26.876Z,61910.94
2023-03-18T20:14:55.401Z,61907.59
2023-03-18T20:17:32.480Z,61902.78
2023-03-18T20:20:02.661Z,61893.28
2023-03-18T20:22:34.945Z,61891.44
2023-03-18T20:25:06.094Z,61881.22
2023-03-18T20:27:34.484Z,61889.06
2023-03-18T20:30:03.373Z,61875.94
2023-03-18T20:32:31.835Z,61876.47
2023-03-18T20:35:03.597Z,61876.47
2023-03-18T20:37:35.005Z,61875.31
2023-03-18T20:40:04.919Z,61880.25
2023-03-18T20:42:33.865Z,61879.19
2023-03-18T20:45:02.298Z,61882.94
2023-03-18T20:47:30.701Z,61887.69
2023-03-18T20:49:59.122Z,61881.88
2023-03-18T20:52:31.273Z,61881.88
2023-03-18T20:55:00.330Z,61880.13
2023-03-18T20:57:28.721Z,61872.72
2023-03-18T20:59:58.037Z,61869.47
2023-03-18T21:02:33.021Z,61863.56
2023-03-18T21:05:02.734Z,61857.72
2023-03-18T21:07:32.532Z,61847.63
2023-03-18T21:10:00.981Z,61845.88
2023-03-18T21:12:29.730Z,61842.00
2023-03-18T21:15:01.099Z,61851.72
2023-03-18T21:17:29.929Z,61848.91
2023-03-18T21:20:11.078Z,61845.88
2023-03-18T21:22:46.490Z,61851.72
2023-03-18T21:25:20.710Z,61861.81
2023-03-18T21:27:49.950Z,61856.66
2023-03-18T21:30:21.523Z,61855.06
2023-03-18T21:32:51.256Z,61863.56
2023-03-18T21:35:23.133Z,61860.31
2023-03-18T21:37:54.184Z,61859.66
2023-03-18T21:40:27.404Z,61855.59
2023-03-18T21:42:56.090Z,61862.06
2023-03-18T21:45:24.958Z,61855.06
2023-03-18T21:47:53.696Z,61866.25
2023-03-18T21:50:25.250Z,61859.88
2023-03-18T21:52:56.149Z,61860.44
2023-03-18T21:55:24.610Z,61868.81
2023-03-18T21:57:53.029Z,61854.50
2023-03-18T22:00:22.508Z,61853.97
2023-03-18T22:02:51.204Z,61856.00
2023-03-18T22:05:23.030Z,61860.31
2023-03-18T22:07:52.049Z,61863.56
2023-03-18T22:10:24.483Z,61867.75
2023-03-18T22:12:53.251Z,61862.91
2023-03-18T22:15:46.714Z,61854.06
2023-03-18T22:18:16.008Z,61850.75
2023-03-18T22:20:47.373Z,61837.81
2023-03-18T22:23:19.889Z,61850.63
2023-03-18T22:25:52.010Z,61846.97
2023-03-18T22:28:20.808Z,61845.69
2023-03-18T22:30:52.423Z,61847.94
2023-03-18T22:33:25.151Z,61847.41
2023-03-18T22:35:54.017Z,61846.97
2023-03-18T22:38:24.852Z,61842.66
2023-03-18T22:40:57.734Z,61844.59
2023-03-18T22:43:33.525Z,61839.44
2023-03-18T22:46:05.343Z,61834.03
2023-03-18T22:48:34.355Z,61828.88
2023-03-18T22:51:03.740Z,61831.13
2023-03-18T22:53:35.997Z,61816.81
2023-03-18T22:56:10.728Z,61808.19
2023-03-18T22:58:39.836Z,61804.97
2023-03-18T23:01:08.852Z,61801.72
2023-03-18T23:03:40.526Z,61801.41
2023-03-18T23:06:10.849Z,61794.06
2023-03-18T23:08:39.396Z,61796.22
2023-03-18T23:11:09.557Z,61785.56
2023-03-18T23:13:40.491Z,61788.69
2023-03-18T23:16:14.915Z,61791.38
2023-03-18T23:18:43.813Z,61797.19
2023-03-18T23:21:16.367Z,61797.75
2023-03-18T23:23:45.019Z,61785.16
2023-03-18T23:26:15.241Z,61790.72
2023-03-18T23:28:45.276Z,61775.91
2023-03-18T23:31:14.552Z,61773.50
2023-03-18T23:33:43.443Z,61772.03
2023-03-18T23:36:15.285Z,61772.56
2023-03-18T23:38:44.195Z,61770.94
2023-03-18T23:41:14.161Z,61771.59
2023-03-18T23:43:42.900Z,61777.41
2023-03-18T23:46:12.038Z,61776.97
2023-03-18T23:48:40.795Z,61780.63
2023-03-18T23:51:09.396Z,61774.19
2023-03-18T23:53:38.085Z,61760.81
2023-03-18T23:56:07.612Z,61764.47
2023-03-18T23:58:37.733Z,61765.13
